Time;durP1;ratioP1;P1;durP2;ratioP2;P2;SDS_P1;SDS_P2;PMS_P1;PMS_P2;Temp;Humidity;BMP_temperature;BMP_pressure;BME280_temperature;BME280_humidity;BME280_pressure;Samples;Min_cycle;Max_cycle;Signal;HPM_P1;HPM_P2
2021/12/22 00:02:51;;;;;;;24.88;12.77;;;;;;;-5.59;66.39;100965.50;10400415;28;20478;-67
2021/12/22 00:07:54;;;;;;;34.70;15.30;;;;;;;-5.67;66.66;100972.13;10404321;28;20088;-67
2021/12/22 00:12:56;;;;;;;29.95;16.67;;;;;;;-5.75;66.68;100976.19;10405663;28;20489;-67
2021/12/22 00:17:57;;;;;;;25.55;14.13;;;;;;;-5.67;66.73;100978.09;10404648;28;20057;-67
2021/12/22 00:22:59;;;;;;;27.80;15.73;;;;;;;-5.63;66.16;100974.78;10403916;28;20076;-67
2021/12/22 00:28:02;;;;;;;22.90;13.10;;;;;;;-5.61;66.25;100969.72;10404992;28;20137;-67
2021/12/22 00:33:06;;;;;;;20.90;12.55;;;;;;;-5.59;66.16;100968.06;10404752;28;20045;-67
2021/12/22 00:38:10;;;;;;;32.40;14.95;;;;;;;-5.59;66.10;100961.28;10404834;28;20564;-67
2021/12/22 00:43:11;;;;;;;30.17;16.15;;;;;;;-5.54;66.14;100969.88;10405030;28;20046;-67
2021/12/22 00:48:13;;;;;;;28.45;14.90;;;;;;;-5.57;66.17;100967.25;10404169;28;20561;-67
2021/12/22 00:53:15;;;;;;;32.65;16.42;;;;;;;-5.54;66.12;100964.75;10404317;28;20163;-67
2021/12/22 00:58:17;;;;;;;33.25;17.23;;;;;;;-5.55;66.21;100952.88;10368688;28;20045;-67
2021/12/22 01:03:20;;;;;;;39.42;19.52;;;;;;;-5.47;65.98;100960.66;10403085;28;20143;-67
2021/12/22 01:08:22;;;;;;;38.72;20.52;;;;;;;-5.48;65.69;100958.94;10403241;28;20050;-67
2021/12/22 01:13:23;;;;;;;34.97;18.55;;;;;;;-5.51;65.48;100959.75;10403638;28;20366;-67
2021/12/22 01:18:30;;;;;;;41.50;19.27;;;;;;;-5.52;65.58;100960.56;10402969;28;20049;-67
2021/12/22 01:23:40;;;;;;;37.97;18.25;;;;;;;-5.49;65.57;100959.78;10403156;28;20041;-67
2021/12/22 01:28:43;;;;;;;29.15;16.10;;;;;;;-5.48;65.50;100957.25;10402440;28;20053;-67
2021/12/22 01:33:44;;;;;;;29.30;16.35;;;;;;;-5.49;65.38;100957.22;10402242;28;20129;-67
2021/12/22 01:38:48;;;;;;;26.60;15.15;;;;;;;-5.52;65.43;100958.00;10403080;28;20049;-67
2021/12/22 01:43:50;;;;;;;27.05;14.40;;;;;;;-5.48;65.33;100966.56;10403042;28;20049;-67
2021/12/22 01:49:11;;;;;;;24.92;11.52;;;;;;;-5.51;65.34;100964.84;10402536;28;20482;-67
2021/12/22 01:54:19;;;;;;;24.70;13.45;;;;;;;-5.58;65.10;100970.63;10402195;28;20052;-66
2021/12/22 01:59:21;;;;;;;26.98;13.52;;;;;;;-5.62;65.30;100968.84;10410995;28;20052;-67
2021/12/22 02:04:23;;;;;;;23.50;13.05;;;;;;;-5.64;65.07;100970.50;10410704;28;20482;-67
2021/12/22 02:14:55;;;;;;;22.60;11.17;;;;;;;-5.67;65.41;100993.38;10359426;28;20051;-68
2021/12/22 02:19:57;;;;;;;25.65;12.10;;;;;;;-5.53;65.25;100986.88;10409537;28;20539;-67
2021/12/22 02:25:05;;;;;;;27.42;12.02;;;;;;;-5.56;65.17;100984.25;10409513;28;20469;-67
2021/12/22 02:30:15;;;;;;;25.52;11.45;;;;;;;-5.62;65.39;100980.72;10409688;28;20052;-67
2021/12/22 02:35:24;;;;;;;26.60;12.10;;;;;;;-5.67;65.10;100987.41;10410129;28;20053;-67
2021/12/22 02:40:27;;;;;;;24.83;12.05;;;;;;;-5.75;64.94;100984.69;10409140;28;20439;-67
2021/12/22 02:45:29;;;;;;;26.52;11.93;;;;;;;-5.85;65.17;100980.22;10409533;28;20050;-67
2021/12/22 02:50:34;;;;;;;24.88;12.07;;;;;;;-5.89;65.36;100975.03;10409716;28;20084;-67
2021/12/22 02:55:59;;;;;;;24.27;10.43;;;;;;;-5.89;65.31;100980.94;10406770;28;20084;-67
2021/12/22 03:06:12;;;;;;;24.38;11.70;;;;;;;-5.96;65.39;100994.38;10415201;28;20042;-67
2021/12/22 03:11:14;;;;;;;29.35;13.15;;;;;;;-5.97;65.45;100990.09;10415964;28;20124;-67
2021/12/22 03:16:19;;;;;;;24.63;12.68;;;;;;;-5.97;65.32;100984.19;10415719;28;20053;-67
2021/12/22 03:21:22;;;;;;;28.00;13.55;;;;;;;-6.01;65.21;100990.03;10416654;28;20059;-67
2021/12/22 03:26:25;;;;;;;27.05;11.93;;;;;;;-6.04;65.24;100992.47;10416230;28;20128;-67
2021/12/22 03:31:26;;;;;;;24.90;12.50;;;;;;;-6.08;65.22;100988.13;10416012;28;20045;-66
2021/12/22 03:36:28;;;;;;;26.02;12.95;;;;;;;-6.10;65.32;100985.56;10415624;28;20092;-67
2021/12/22 03:41:30;;;;;;;28.27;12.40;;;;;;;-6.15;65.29;100971.84;10415516;28;20084;-67
2021/12/22 03:46:32;;;;;;;22.67;11.95;;;;;;;-6.17;65.33;100976.03;10414696;28;20042;-67
2021/12/22 03:51:36;;;;;;;23.90;12.80;;;;;;;-6.18;65.50;100971.78;10415108;28;20081;-67
2021/12/22 03:56:38;;;;;;;27.70;12.82;;;;;;;-6.33;65.29;100966.31;10414266;28;20061;-67
2021/12/22 04:01:39;;;;;;;24.17;12.82;;;;;;;-6.37;65.41;100972.16;10414473;28;20401;-67
2021/12/22 04:06:43;;;;;;;26.67;12.57;;;;;;;-6.37;65.42;100961.97;10408973;28;20077;-67
2021/12/22 04:11:45;;;;;;;29.80;12.63;;;;;;;-6.42;65.34;100969.50;10404536;28;20037;-67
2021/12/22 04:16:47;;;;;;;20.85;11.27;;;;;;;-6.43;65.49;100961.81;10404346;28;20498;-67
2021/12/22 04:21:50;;;;;;;22.65;11.40;;;;;;;-6.45;65.25;100966.88;10406606;28;20049;-67
2021/12/22 04:26:51;;;;;;;25.23;11.77;;;;;;;-6.51;65.19;100956.56;10405866;28;20042;-67
2021/12/22 04:31:53;;;;;;;23.60;12.38;;;;;;;-6.53;65.49;100957.34;10406557;28;20106;-67
2021/12/22 04:36:55;;;;;;;23.38;11.70;;;;;;;-6.44;65.25;100949.94;10405924;28;20109;-67
2021/12/22 04:41:56;;;;;;;23.73;11.57;;;;;;;-6.36;65.31;100944.19;10405826;28;20044;-67
2021/12/22 04:46:59;;;;;;;26.27;11.48;;;;;;;-6.27;65.21;100934.25;10404829;28;20081;-67
2021/12/22 04:52:04;;;;;;;23.88;11.07;;;;;;;-6.18;64.96;100931.06;10405534;28;20136;-67
2021/12/22 04:57:05;;;;;;;23.58;11.30;;;;;;;-6.12;64.73;100925.25;10404052;28;20069;-67
2021/12/22 05:02:07;;;;;;;19.98;10.70;;;;;;;-6.15;65.03;100928.56;10405004;28;20042;-67
2021/12/22 05:07:09;;;;;;;22.50;11.75;;;;;;;-5.97;64.81;100925.59;10404988;28;20041;-67
2021/12/22 05:12:11;;;;;;;21.95;10.95;;;;;;;-5.92;64.63;100935.06;10402924;28;20140;-67
2021/12/22 05:17:19;;;;;;;26.20;11.65;;;;;;;-5.86;64.59;100954.69;10403359;28;20494;-67
2021/12/22 05:22:21;;;;;;;25.80;11.63;;;;;;;-5.88;64.52;100953.81;10404310;28;20140;-67
2021/12/22 05:27:23;;;;;;;21.25;11.68;;;;;;;-5.88;64.50;100946.16;10402799;28;20055;-67
2021/12/22 05:32:30;;;;;;;21.98;11.82;;;;;;;-5.89;64.52;100957.19;10402334;28;20095;-67
2021/12/22 05:37:33;;;;;;;28.38;12.10;;;;;;;-5.93;64.32;100970.69;10404364;28;20053;-67
2021/12/22 05:42:35;;;;;;;25.30;12.45;;;;;;;-6.01;64.35;100970.47;10404045;28;20057;-66
2021/12/22 05:47:37;;;;;;;25.50;11.82;;;;;;;-6.05;64.38;100980.59;10404187;28;20128;-66
2021/12/22 05:52:38;;;;;;;34.92;13.07;;;;;;;-6.11;64.62;100972.81;10403666;28;20115;-67
2021/12/22 05:57:40;;;;;;;29.17;13.35;;;;;;;-6.17;64.49;100981.13;10403564;28;20453;-67
2021/12/22 06:02:42;;;;;;;32.40;14.45;;;;;;;-6.17;64.52;100977.75;10403606;28;20049;-67
2021/12/22 06:07:44;;;;;;;46.47;15.68;;;;;;;-6.16;64.92;100976.91;10403699;28;20115;-67
2021/12/22 06:12:46;;;;;;;38.45;15.40;;;;;;;-6.15;64.81;100979.47;10402827;28;20383;-67
2021/12/22 06:17:53;;;;;;;42.60;16.25;;;;;;;-6.14;64.94;100977.81;10402915;28;20057;-67
2021/12/22 06:22:55;;;;;;;58.53;19.35;;;;;;;-6.38;64.84;100973.84;10402742;28;20124;-67
2021/12/22 06:27:57;;;;;;;45.60;17.50;;;;;;;-6.53;65.38;100975.16;10417884;28;20124;-67
2021/12/22 06:32:58;;;;;;;32.53;14.57;;;;;;;-6.57;65.46;100980.97;10402622;28;20045;-67
2021/12/22 06:38:01;;;;;;;41.50;16.60;;;;;;;-6.67;65.01;100977.34;10402172;28;20048;-67
2021/12/22 06:43:04;;;;;;;47.15;16.83;;;;;;;-6.78;65.10;100960.94;10405631;28;20065;-67
2021/12/22 06:48:05;;;;;;;38.53;16.55;;;;;;;-6.87;65.30;100973.44;10408681;28;20042;-67
2021/12/22 06:53:07;;;;;;;33.90;15.10;;;;;;;-6.82;65.33;100969.31;10408656;28;20111;-67
2021/12/22 06:58:09;;;;;;;34.08;15.80;;;;;;;-6.74;65.24;100972.03;10410403;28;20045;-67
2021/12/22 07:03:11;;;;;;;30.02;13.57;;;;;;;-6.72;65.02;100972.94;10408341;28;20067;-67
2021/12/22 07:08:12;;;;;;;32.28;14.88;;;;;;;-6.69;64.83;100981.53;10408281;28;20041;-67
2021/12/22 07:13:14;;;;;;;30.88;14.98;;;;;;;-6.70;64.71;100974.72;10409216;28;20140;-67
2021/12/22 07:18:16;;;;;;;31.35;14.85;;;;;;;-6.75;64.71;100980.50;10408184;28;20053;-67
2021/12/22 07:23:18;;;;;;;30.27;14.95;;;;;;;-6.71;64.58;100995.03;10407733;28;20408;-68
2021/12/22 07:28:19;;;;;;;34.72;15.25;;;;;;;-6.70;64.57;100992.50;10424088;28;20115;-67
2021/12/22 07:33:21;;;;;;;32.13;14.85;;;;;;;-6.70;64.62;100999.31;10408356;28;20449;-67
2021/12/22 07:38:30;;;;;;;27.80;14.13;;;;;;;-6.75;64.48;100993.22;10407246;28;20041;-67
2021/12/22 07:43:32;;;;;;;30.48;16.02;;;;;;;-6.70;64.45;100979.78;10406128;28;20045;-68
2021/12/22 07:48:35;;;;;;;34.03;17.10;;;;;;;-6.58;64.54;100980.09;10406607;28;20128;-68
2021/12/22 07:53:37;;;;;;;35.67;16.30;;;;;;;-6.70;64.33;100984.88;10395664;28;20072;-68
2021/12/22 07:58:39;;;;;;;29.75;13.80;;;;;;;-6.69;64.65;100976.44;10379363;28;20053;-67
2021/12/22 08:03:41;;;;;;;26.55;12.77;;;;;;;-6.59;64.76;100987.72;10380552;28;20516;-67
2021/12/22 08:08:45;;;;;;;26.65;13.38;;;;;;;-6.38;64.19;100993.34;10381957;28;20125;-66
2021/12/22 08:13:46;;;;;;;32.28;14.35;;;;;;;-6.29;64.11;100994.44;10383416;28;20544;-67
2021/12/22 08:18:48;;;;;;;32.17;15.38;;;;;;;-6.17;64.36;100993.88;10385336;28;20167;-67
2021/12/22 08:23:50;;;;;;;37.45;17.08;;;;;;;-6.02;64.17;100989.16;10365445;28;20042;-67
2021/12/22 08:28:51;;;;;;;34.33;15.68;;;;;;;-5.93;64.12;100986.81;10373598;28;20064;-67
2021/12/22 08:33:55;;;;;;;33.80;17.08;;;;;;;-5.82;64.02;100967.53;10388056;28;20056;-67
2021/12/22 08:39:00;;;;;;;35.35;16.15;;;;;;;-5.74;64.05;100973.66;10375331;28;20504;-76
2021/12/22 08:44:05;;;;;;;34.15;16.50;;;;;;;-5.64;63.95;100967.94;10396536;28;20041;-75
2021/12/22 08:49:08;;;;;;;42.25;19.15;;;;;;;-5.52;63.82;100974.97;10402046;28;20055;-75
2021/12/22 08:54:11;;;;;;;42.95;21.55;;;;;;;-5.34;63.86;100969.44;10399813;28;20220;-75
2021/12/22 08:59:14;;;;;;;45.60;22.20;;;;;;;-5.21;63.33;100971.38;10387860;28;20052;-74
2021/12/22 09:04:19;;;;;;;43.58;20.50;;;;;;;-5.04;63.43;100960.69;10400452;28;20417;-76
2021/12/22 09:09:21;;;;;;;36.20;17.92;;;;;;;-4.83;63.19;100958.53;10396213;28;20457;-75
2021/12/22 09:14:24;;;;;;;36.53;16.33;;;;;;;-4.61;63.44;100954.69;10387601;28;20050;-74
2021/12/22 09:19:26;;;;;;;34.15;16.65;;;;;;;-4.52;63.33;100949.72;10397066;28;20057;-75
2021/12/22 09:24:29;;;;;;;35.55;15.50;;;;;;;-4.45;63.51;100954.13;10399560;28;20084;-75
2021/12/22 09:29:31;;;;;;;29.27;14.95;;;;;;;-4.30;63.28;100944.13;10387440;28;20472;-75
2021/12/22 09:34:33;;;;;;;26.23;15.63;;;;;;;-4.40;63.55;100955.03;10387036;28;20061;-76
2021/12/22 09:39:35;;;;;;;28.52;15.30;;;;;;;-4.24;63.63;100946.78;10395627;28;20046;-75
2021/12/22 09:44:44;;;;;;;27.08;15.10;;;;;;;-4.25;63.59;100944.22;10414602;28;20046;-75
2021/12/22 09:49:59;;;;;;;28.55;15.35;;;;;;;-4.23;63.55;100940.88;10376151;28;20137;-75
2021/12/22 09:55:01;;;;;;;23.65;13.90;;;;;;;-4.09;63.48;100938.50;10388053;28;20623;-75
2021/12/22 10:00:05;;;;;;;23.17;13.57;;;;;;;-3.96;63.32;100933.63;10388171;28;20045;-74
2021/12/22 10:05:07;;;;;;;24.55;14.38;;;;;;;-3.88;63.23;100926.06;10398421;28;20486;-75
2021/12/22 10:10:10;;;;;;;26.70;13.48;;;;;;;-3.74;63.24;100911.78;10402249;28;20148;-72
2021/12/22 10:15:12;;;;;;;31.48;15.20;;;;;;;-3.61;62.96;100915.34;10400996;28;20133;-75
2021/12/22 10:20:20;;;;;;;26.73;14.18;;;;;;;-3.72;62.99;100912.66;10409252;28;20088;-75
2021/12/22 10:25:25;;;;;;;25.55;14.57;;;;;;;-3.54;63.07;100917.13;10410646;28;20640;-74
2021/12/22 10:30:36;;;;;;;32.85;16.40;;;;;;;-3.56;62.99;100908.59;10410569;28;20103;-75
2021/12/22 10:35:40;;;;;;;;;;;;;;;-3.56;63.56;100903.47;10407027;28;20064;-75
2021/12/22 10:40:45;;;;;;;23.38;14.48;;;;;;;-3.47;62.81;100888.25;10406607;28;20510;-75
2021/12/22 10:45:51;;;;;;;24.92;14.70;;;;;;;-3.44;63.02;100878.06;10407962;28;20087;-76
2021/12/22 10:50:59;;;;;;;30.77;16.65;;;;;;;-3.44;63.57;100880.59;10406919;28;20061;-76
2021/12/22 10:56:02;;;;;;;29.83;17.63;;;;;;;-3.42;63.48;100871.25;10408933;28;20084;-76
2021/12/22 11:01:09;;;;;;;30.45;16.80;;;;;;;-3.36;63.88;100861.97;10408443;28;20084;-74
2021/12/22 11:06:26;;;;;;;29.17;16.33;;;;;;;-3.40;63.78;100856.78;10408093;28;20474;-76
2021/12/22 11:11:36;;;;;;;38.65;21.02;;;;;;;-3.33;64.04;100858.59;10410081;28;20132;-75
2021/12/22 11:16:53;;;;;;;;;;;;;;;-3.45;64.82;100851.66;10398263;28;20141;-77
2021/12/22 11:22:14;;;;;;;26.77;16.23;;;;;;;-3.24;64.22;100846.75;10410201;28;20015;-76
2021/12/22 11:27:19;;;;;;;28.60;15.38;;;;;;;-3.05;64.21;100853.78;10405640;28;20573;-77
2021/12/22 11:32:22;;;;;;;26.55;15.30;;;;;;;-2.87;63.75;100840.28;10407364;28;20129;-75
2021/12/22 11:37:25;;;;;;;27.02;15.60;;;;;;;-2.69;63.59;100832.75;10407753;28;20136;-75
2021/12/22 11:42:37;;;;;;;25.25;15.85;;;;;;;-2.63;63.73;100827.69;10403811;28;20084;-76
2021/12/22 11:47:43;;;;;;;23.60;14.63;;;;;;;-2.45;63.81;100827.81;10401030;28;20053;-77
2021/12/22 11:53:02;;;;;;;25.73;16.77;;;;;;;-2.25;63.37;100826.25;10405513;28;20479;-78
2021/12/22 11:58:22;;;;;;;27.88;16.40;;;;;;;-2.23;63.28;100809.19;10400468;28;20049;-77
2021/12/22 12:03:36;;;;;;;26.88;15.35;;;;;;;-2.09;62.96;100807.56;10381264;28;20083;-77
2021/12/22 12:08:56;;;;;;;25.90;15.57;;;;;;;-2.06;63.03;100797.31;10407474;28;20485;-77
2021/12/22 12:14:05;;;;;;;26.33;16.13;;;;;;;-1.99;63.17;100793.06;10405938;28;20049;-76
2021/12/22 12:24:48;;;;;;;25.65;15.02;;;;;;;-1.95;63.18;100783.69;10406287;28;20140;-78
2021/12/22 12:30:00;;;;;;;25.20;15.45;;;;;;;-1.77;62.64;100782.06;10415825;28;20132;-77
2021/12/22 12:35:20;;;;;;;28.27;16.48;;;;;;;-1.64;62.81;100771.00;10396514;28;20053;-77
2021/12/22 12:41:05;;;;;;;25.02;15.65;;;;;;;-1.54;62.34;100759.91;10384736;28;20126;-76
2021/12/22 12:46:19;;;;;;;27.90;16.33;;;;;;;-1.47;62.57;100758.22;10387561;28;20045;-80
2021/12/22 12:51:32;;;;;;;26.35;16.33;;;;;;;-1.33;62.72;100756.53;10405338;28;20410;-80
2021/12/22 12:56:39;;;;;;;27.75;17.23;;;;;;;-1.18;62.57;100759.09;10405689;28;20091;-81
2021/12/22 13:01:50;;;;;;;26.98;16.63;;;;;;;-1.08;62.51;100755.66;10396340;28;20136;-79
2021/12/22 13:07:01;;;;;;;24.55;14.85;;;;;;;-0.99;62.05;100740.28;10401380;28;20041;-82
2021/12/22 13:13:03;;;;;;;24.20;15.60;;;;;;;-1.02;62.50;100732.56;10399388;28;20057;-77
2021/12/22 13:17:28;;;;;;;24.08;16.20;;;;;;;-0.88;62.35;100735.16;10391324;28;20178;-80
2021/12/22 13:22:35;;;;;;;27.58;17.25;;;;;;;-0.79;62.30;100725.72;10392751;28;20132;-80
2021/12/22 13:27:42;;;;;;;26.02;16.48;;;;;;;-0.75;62.40;100722.28;10392562;28;20136;-79
2021/12/22 13:33:05;;;;;;;25.42;16.38;;;;;;;-0.73;62.60;100712.00;10393239;28;20081;-74
2021/12/22 13:38:06;;;;;;;25.15;15.68;;;;;;;-0.63;62.46;100705.97;10393786;28;20430;-78
2021/12/22 13:43:29;;;;;;;26.75;16.38;;;;;;;-0.62;62.77;100697.44;10398739;28;20132;-77
2021/12/22 13:48:31;;;;;;;28.10;16.55;;;;;;;-0.61;62.76;100702.56;10398525;28;20129;-75
2021/12/22 13:53:33;;;;;;;25.33;15.73;;;;;;;-0.50;62.58;100698.25;10401666;28;20041;-75
2021/12/22 13:58:44;;;;;;;26.85;16.33;;;;;;;-0.51;62.72;100693.09;10401802;28;20515;-74
2021/12/22 14:04:01;;;;;;;30.63;16.20;;;;;;;-0.47;62.59;100681.97;10393813;28;20497;-72
2021/12/22 14:09:06;;;;;;;23.63;15.10;;;;;;;-0.44;62.80;100682.81;10400839;28;20140;-73
2021/12/22 14:14:47;;;;;;;30.55;18.75;;;;;;;-0.39;62.79;100685.34;10400787;28;20049;-74
2021/12/22 14:19:49;;;;;;;27.27;17.05;;;;;;;-0.42;62.92;100686.25;10390075;28;20156;-72
2021/12/22 14:24:56;;;;;;;31.13;18.23;;;;;;;-0.50;63.48;100685.41;10389453;28;20072;-72
2021/12/22 14:29:58;;;;;;;26.70;17.83;;;;;;;-0.41;62.83;100682.81;10397560;28;20121;-73
2021/12/22 14:35:10;;;;;;;26.67;17.92;;;;;;;-0.44;62.95;100687.97;10392302;28;20051;-72
2021/12/22 14:40:22;;;;;;;31.73;18.50;;;;;;;-0.53;63.16;100672.56;10400375;28;20128;-72
2021/12/22 14:45:32;;;;;;;27.63;17.50;;;;;;;-0.63;63.39;100660.63;10400117;28;20433;-73
2021/12/22 14:50:35;;;;;;;30.10;20.02;;;;;;;-0.71;63.32;100666.63;10393946;28;20050;-73
2021/12/22 14:55:43;;;;;;;29.95;18.80;;;;;;;-0.85;63.78;100660.66;10400836;28;20489;-73
2021/12/22 15:00:47;;;;;;;29.35;18.50;;;;;;;-0.85;63.60;100658.09;10387171;28;20067;-74
2021/12/22 15:05:55;;;;;;;29.15;18.48;;;;;;;-0.97;63.63;100659.00;10408097;28;20073;-74
2021/12/22 15:10:59;;;;;;;31.77;19.90;;;;;;;-1.15;64.14;100654.72;10406699;28;20136;-74
2021/12/22 15:16:01;;;;;;;30.80;19.55;;;;;;;-1.40;64.52;100647.03;10406556;28;20053;-73
2021/12/22 15:21:05;;;;;;;29.05;18.75;;;;;;;-1.54;64.65;100638.50;10375455;28;20502;-73
2021/12/22 15:26:07;;;;;;;28.67;19.60;;;;;;;-1.62;64.62;100646.19;10408738;28;20071;-74
2021/12/22 15:31:08;;;;;;;33.28;21.30;;;;;;;-1.81;64.65;100639.31;10396140;28;20473;-76
2021/12/22 15:36:11;;;;;;;31.45;21.20;;;;;;;-2.02;65.12;100640.13;10422454;28;20049;-74
2021/12/22 15:41:13;;;;;;;34.83;21.52;;;;;;;-2.10;65.27;100646.94;10404067;28;20047;-73
2021/12/22 15:46:15;;;;;;;30.27;19.50;;;;;;;-2.18;65.38;100638.38;10403794;28;20081;-77
2021/12/22 15:51:17;;;;;;;29.95;19.42;;;;;;;-2.30;65.62;100634.94;10391832;28;20057;-75
2021/12/22 15:56:18;;;;;;;31.08;19.50;;;;;;;-2.34;65.87;100635.75;10396705;28;20573;-75
2021/12/22 16:01:20;;;;;;;29.67;18.88;;;;;;;-2.37;65.88;100636.63;10403374;28;20076;-74
2021/12/22 16:06:22;;;;;;;29.10;18.30;;;;;;;-2.41;65.92;100628.94;10405420;28;20505;-77
2021/12/22 16:11:24;;;;;;;29.33;18.48;;;;;;;-2.47;65.83;100634.84;10392770;28;20060;-77
2021/12/22 16:16:26;;;;;;;33.00;20.48;;;;;;;-2.41;65.98;100629.78;10399963;28;20052;-76
2021/12/22 16:21:27;;;;;;;32.63;19.35;;;;;;;-2.48;66.10;100627.19;10402954;28;20583;-76
2021/12/22 16:26:29;;;;;;;31.55;19.17;;;;;;;-2.48;66.10;100622.91;10403595;28;20055;-77
2021/12/22 16:31:32;;;;;;;30.05;20.77;;;;;;;-2.52;66.29;100625.47;10402794;28;20132;-76
2021/12/22 16:36:34;;;;;;;31.08;19.05;;;;;;;-2.54;66.40;100620.34;10403071;28;20052;-77
2021/12/22 16:41:36;;;;;;;29.75;19.35;;;;;;;-2.58;66.26;100621.19;10403014;28;20049;-75
2021/12/22 16:46:37;;;;;;;34.85;20.25;;;;;;;-2.64;66.42;100621.16;10402308;28;20139;-78
2021/12/22 16:51:39;;;;;;;35.85;23.20;;;;;;;-2.75;66.47;100616.84;10385186;28;20061;-75
2021/12/22 16:56:41;;;;;;;39.58;24.98;;;;;;;-2.82;66.87;100626.19;10399053;28;20049;-77
2021/12/22 17:01:43;;;;;;;37.30;23.15;;;;;;;-2.89;66.89;100615.06;10401127;28;20083;-77
2021/12/22 17:06:45;;;;;;;38.83;23.48;;;;;;;-2.90;67.12;100618.44;10402296;28;20137;-77
2021/12/22 17:11:47;;;;;;;39.05;23.23;;;;;;;-2.85;66.87;100610.78;10400566;28;20053;-77
2021/12/22 17:16:51;;;;;;;36.08;23.73;;;;;;;-2.90;66.90;100612.50;10396905;28;20459;-77
2021/12/22 17:21:52;;;;;;;35.70;23.60;;;;;;;-3.01;66.97;100612.44;10401140;28;20159;-77
2021/12/22 17:26:54;;;;;;;49.80;30.75;;;;;;;-3.07;67.04;100608.97;10399401;28;20057;-77
2021/12/22 17:31:57;;;;;;;50.38;30.63;;;;;;;-3.10;67.24;100614.09;10399952;28;20401;-77
2021/12/22 17:36:58;;;;;;;50.33;29.55;;;;;;;-3.20;66.86;100607.22;10400888;28;20096;-76
2021/12/22 17:42:00;;;;;;;52.47;31.10;;;;;;;-3.26;66.99;100602.88;10400466;28;20045;-78
2021/12/22 17:47:02;;;;;;;57.80;35.22;;;;;;;-3.23;67.21;100602.06;10399632;28;20132;-77
2021/12/22 17:52:04;;;;;;;50.10;30.88;;;;;;;-3.32;67.04;100601.97;10393769;28;20405;-72
2021/12/22 17:57:16;;;;;;;49.15;28.15;;;;;;;-3.43;67.14;100595.97;10400481;28;20052;-72
2021/12/22 18:02:22;;;;;;;55.20;31.70;;;;;;;-3.48;66.96;100595.06;10388321;28;20109;-72
2021/12/22 18:07:24;;;;;;;45.38;26.92;;;;;;;-3.57;67.19;100595.00;10399927;28;20049;-71
2021/12/22 18:12:26;;;;;;;51.17;29.65;;;;;;;-3.60;66.91;100583.03;10399428;28;20046;-72
2021/12/22 18:17:28;;;;;;;60.58;37.30;;;;;;;-3.63;66.82;100571.94;10400237;28;20081;-73
2021/12/22 18:22:29;;;;;;;51.28;30.70;;;;;;;-3.69;67.10;100571.03;10400476;28;20120;-77
2021/12/22 18:27:31;;;;;;;57.08;34.05;;;;;;;-3.66;66.75;100562.56;10398190;28;20656;-72
2021/12/22 18:32:33;;;;;;;35.53;23.92;;;;;;;-3.66;66.95;100552.31;10398661;28;20144;-72
2021/12/22 18:37:46;;;;;;;39.70;23.70;;;;;;;-3.67;66.95;100541.25;10402085;28;20045;-73
2021/12/22 18:42:47;;;;;;;49.25;28.60;;;;;;;-3.67;66.92;100543.78;10408146;28;20046;-73
2021/12/22 18:47:49;;;;;;;43.95;28.38;;;;;;;-3.76;67.12;100533.53;10403957;28;20050;-72
2021/12/22 18:52:51;;;;;;;43.78;25.85;;;;;;;-3.78;67.24;100534.34;10392694;28;20052;-64
2021/12/22 18:57:52;;;;;;;41.17;25.02;;;;;;;-3.88;67.00;100522.34;10406679;28;20583;-64
2021/12/22 19:02:54;;;;;;;37.50;22.92;;;;;;;-4.00;66.96;100515.47;10406372;28;20049;-64
2021/12/22 19:07:56;;;;;;;44.05;25.58;;;;;;;-4.08;67.06;100517.09;10406683;28;20063;-63
2021/12/22 19:12:58;;;;;;;43.78;26.83;;;;;;;-4.15;66.88;100510.22;10406432;28;20128;-64
2021/12/22 19:18:00;;;;;;;40.25;25.08;;;;;;;-4.23;66.77;100504.19;10402947;28;20056;-64
2021/12/22 19:23:02;;;;;;;39.03;23.38;;;;;;;-4.25;66.75;100505.00;10405084;28;20041;-64
2021/12/22 19:28:05;;;;;;;44.85;25.95;;;;;;;-4.32;66.91;100501.53;10404387;28;20512;-63
2021/12/22 19:33:08;;;;;;;43.92;25.20;;;;;;;-4.34;67.25;100500.66;10405865;28;20041;-64
2021/12/22 19:38:12;;;;;;;39.42;24.23;;;;;;;-4.28;67.33;100495.59;10404200;28;20072;-64
2021/12/22 19:43:14;;;;;;;45.47;25.63;;;;;;;-4.27;66.98;100496.47;10403653;28;20071;-63
2021/12/22 19:48:17;;;;;;;44.22;26.15;;;;;;;-4.27;67.16;100491.38;10402696;28;20042;-64
2021/12/22 19:53:19;;;;;;;48.80;28.35;;;;;;;-4.25;66.89;100489.69;10405376;28;20077;-64
2021/12/22 19:58:21;;;;;;;44.25;27.38;;;;;;;-4.17;67.07;100478.69;10406279;28;20061;-64
2021/12/22 20:03:23;;;;;;;50.85;30.30;;;;;;;-4.10;66.48;100483.03;10406008;28;20046;-64
2021/12/22 20:08:25;;;;;;;51.17;30.67;;;;;;;-4.12;66.47;100476.19;10407317;28;20146;-63
2021/12/22 20:13:28;;;;;;;52.50;30.25;;;;;;;-4.13;66.29;100474.47;10407612;28;20054;-64
2021/12/22 20:18:30;;;;;;;47.08;28.00;;;;;;;-4.15;66.33;100482.13;10402260;28;20057;-64
2021/12/22 20:23:32;;;;;;;40.55;23.20;;;;;;;-4.13;66.44;100489.78;10404939;28;20057;-64
2021/12/22 20:28:34;;;;;;;38.00;23.17;;;;;;;-4.14;66.26;100488.94;10405741;28;20053;-63
2021/12/22 20:33:36;;;;;;;36.17;22.48;;;;;;;-4.25;66.49;100487.13;10404206;28;20049;-64
2021/12/22 20:38:37;;;;;;;43.22;25.20;;;;;;;-4.26;66.35;100495.66;10405133;28;20462;-64
2021/12/22 20:43:41;;;;;;;44.17;24.35;;;;;;;-4.38;66.55;100478.50;10404538;28;20057;-63
2021/12/22 20:48:45;;;;;;;45.65;26.55;;;;;;;-4.40;67.08;100479.34;10405450;28;20132;-63
2021/12/22 20:53:48;;;;;;;49.45;27.83;;;;;;;-4.42;67.09;100470.81;10403919;28;20363;-63
2021/12/22 20:58:50;;;;;;;43.03;25.02;;;;;;;-4.37;66.84;100471.69;10403666;28;20053;-63
2021/12/22 21:03:56;;;;;;;43.08;25.88;;;;;;;-4.42;66.65;100469.09;10403877;28;20045;-64
2021/12/22 21:09:00;;;;;;;46.63;26.80;;;;;;;-4.48;66.50;100471.59;10402260;28;20069;-64
2021/12/22 21:14:05;;;;;;;44.85;26.63;;;;;;;-4.61;66.70;100462.97;10402897;28;20465;-64
2021/12/22 21:19:08;;;;;;;41.42;26.00;;;;;;;-4.61;66.77;100464.69;10403216;28;20079;-63
2021/12/22 21:24:10;;;;;;;45.47;27.67;;;;;;;-4.64;66.88;100451.88;10403030;28;20515;-63
2021/12/22 21:29:12;;;;;;;44.33;27.75;;;;;;;-4.68;66.86;100437.38;10402651;28;20962;-64
2021/12/22 21:34:14;;;;;;;43.88;27.00;;;;;;;-4.84;66.92;100440.63;10402865;28;20529;-64
2021/12/22 21:39:16;;;;;;;39.00;25.50;;;;;;;-4.81;66.99;100435.56;10403673;28;20059;-64
2021/12/22 21:44:17;;;;;;;44.30;27.65;;;;;;;-4.77;66.81;100432.22;10402662;28;20063;-64
2021/12/22 21:49:19;;;;;;;56.83;32.90;;;;;;;-4.85;66.59;100428.72;10403116;28;20048;-64
2021/12/22 21:54:21;;;;;;;47.22;28.13;;;;;;;-4.89;66.75;100416.78;10401849;28;20502;-63
2021/12/22 21:59:22;;;;;;;47.35;28.38;;;;;;;-4.97;66.72;100409.03;10402788;28;20502;-63
2021/12/22 22:04:24;;;;;;;44.00;27.63;;;;;;;-5.01;66.83;100399.66;10402557;28;20141;-64
2021/12/22 22:09:26;;;;;;;53.80;31.63;;;;;;;-5.00;66.50;100395.41;10403024;28;20049;-64
2021/12/22 22:14:28;;;;;;;53.75;31.15;;;;;;;-5.20;66.73;100404.56;10408367;28;20050;-64
2021/12/22 22:19:31;;;;;;;53.53;30.30;;;;;;;-5.22;67.05;100390.94;10410543;28;20061;-64
2021/12/22 22:24:32;;;;;;;64.68;36.13;;;;;;;-5.21;66.56;100387.53;10410271;28;20542;-64
2021/12/22 22:29:34;;;;;;;55.13;32.65;;;;;;;-5.23;66.49;100379.88;10410283;28;20152;-64
2021/12/22 22:34:36;;;;;;;49.13;29.50;;;;;;;-5.30;66.54;100372.16;10410203;28;20140;-64
2021/12/22 22:39:38;;;;;;;49.13;29.05;;;;;;;-5.48;66.86;100376.19;10408983;28;20083;-63
2021/12/22 22:44:40;;;;;;;54.92;30.80;;;;;;;-5.54;66.54;100367.63;10409584;28;20045;-63
2021/12/22 22:49:41;;;;;;;52.10;31.13;;;;;;;-5.52;66.72;100377.00;10424121;28;20439;-64
2021/12/22 22:54:44;;;;;;;54.20;33.08;;;;;;;-5.65;66.46;100371.75;10408177;28;20052;-64
2021/12/22 22:59:46;;;;;;;51.22;30.90;;;;;;;-5.64;66.75;100365.78;10408671;28;20042;-64
2021/12/22 23:04:47;;;;;;;52.10;31.20;;;;;;;-5.60;66.91;100347.16;10408640;28;20056;-64